createdAt,value
2023-03-31T00:00:15.023Z,1.63
2023-03-31T00:02:42.053Z,1.40
2023-03-31T00:05:09.990Z,1.70
2023-03-31T00:07:38.605Z,2.03
2023-03-31T00:10:17.217Z,1.60
2023-03-31T00:12:46.237Z,1.45
2023-03-31T00:15:13.650Z,1.45
2023-03-31T00:17:40.568Z,1.95
2023-03-31T00:20:12.617Z,1.85
2023-03-31T00:22:42.527Z,1.45
2023-03-31T00:25:16.582Z,1.50
2023-03-31T00:27:44.690Z,1.20
2023-03-31T00:30:13.634Z,1.67
2023-03-31T00:32:40.581Z,1.60
2023-03-31T00:35:09.023Z,1.50
2023-03-31T00:37:35.940Z,1.52
2023-03-31T00:40:10.111Z,1.55
2023-03-31T00:42:41.995Z,1.30
2023-03-31T00:45:14.899Z,1.52
2023-03-31T00:47:44.292Z,1.45
2023-03-31T00:50:19.000Z,1.30
2023-03-31T00:52:46.502Z,1.80
2023-03-31T00:55:17.103Z,1.23
2023-03-31T00:57:46.874Z,1.40
2023-03-31T01:00:19.038Z,1.35
2023-03-31T01:02:53.328Z,1.48
2023-03-31T01:05:23.583Z,1.10
2023-03-31T01:07:52.041Z,0.85
2023-03-31T01:10:19.071Z,1.30
2023-03-31T01:12:54.888Z,1.52
2023-03-31T01:15:22.578Z,1.20
2023-03-31T01:17:51.375Z,1.10
2023-03-31T01:20:38.987Z,1.15
2023-03-31T01:23:43.614Z,1.38
2023-03-31T01:26:22.617Z,1.10
2023-03-31T01:29:11.601Z,1.30
2023-03-31T01:32:13.817Z,1.10
2023-03-31T01:35:11.676Z,1.20
2023-03-31T01:38:06.155Z,1.17
2023-03-31T01:40:54.592Z,1.27
2023-03-31T01:43:26.981Z,1.15
2023-03-31T01:46:24.296Z,1.20
2023-03-31T01:49:23.352Z,1.25
2023-03-31T01:51:58.187Z,1.60
2023-03-31T01:54:47.142Z,0.98
2023-03-31T01:57:24.878Z,0.95
2023-03-31T02:00:04.466Z,1.13
2023-03-31T02:02:43.327Z,1.63
2023-03-31T02:05:17.920Z,1.08
2023-03-31T02:07:51.602Z,1.05
2023-03-31T02:10:18.877Z,1.00
2023-03-31T02:12:45.921Z,1.55
2023-03-31T02:15:19.416Z,1.27
2023-03-31T02:17:49.182Z,1.42
2023-03-31T02:20:18.595Z,0.93
2023-03-31T02:22:49.850Z,1.50
2023-03-31T02:25:19.905Z,0.90
2023-03-31T02:27:51.974Z,1.10
2023-03-31T02:30:18.816Z,0.90
2023-03-31T02:32:47.001Z,1.35
2023-03-31T02:35:20.640Z,0.85
2023-03-31T02:37:49.977Z,1.77
2023-03-31T02:40:22.162Z,1.13
2023-03-31T02:42:49.437Z,0.80
2023-03-31T02:45:49.617Z,1.00
2023-03-31T02:48:18.426Z,1.48
2023-03-31T02:51:03.427Z,1.17
2023-03-31T02:53:56.103Z,1.27
2023-03-31T02:56:40.103Z,1.00
2023-03-31T02:59:25.493Z,0.90
2023-03-31T03:02:07.743Z,0.70
2023-03-31T03:04:37.338Z,0.80
2023-03-31T03:07:13.050Z,0.82
2023-03-31T03:09:51.207Z,0.77
2023-03-31T03:12:23.135Z,0.98
2023-03-31T03:14:52.850Z,0.70
2023-03-31T03:17:41.825Z,0.95
2023-03-31T03:20:11.948Z,0.88
2023-03-31T03:22:40.048Z,0.98
2023-03-31T03:25:09.760Z,1.23
2023-03-31T03:27:37.278Z,1.00
2023-03-31T03:30:05.787Z,1.33
2023-03-31T03:32:33.940Z,1.05
2023-03-31T03:35:01.759Z,1.10
2023-03-31T03:37:29.077Z,1.00
2023-03-31T03:39:56.127Z,1.02
2023-03-31T03:42:22.905Z,1.10
2023-03-31T03:44:49.852Z,1.10
2023-03-31T03:47:16.636Z,1.23
2023-03-31T03:49:43.492Z,1.77
2023-03-31T03:52:13.267Z,1.02
2023-03-31T03:54:40.095Z,1.05
2023-03-31T03:57:07.777Z,1.35
2023-03-31T03:59:34.672Z,1.10
2023-03-31T04:02:01.481Z,1.20
2023-03-31T04:04:28.274Z,1.63
2023-03-31T04:06:55.113Z,1.00
2023-03-31T04:09:21.898Z,1.02
2023-03-31T04:11:48.677Z,1.08
2023-03-31T04:14:15.779Z,1.30
2023-03-31T04:16:43.070Z,1.05
2023-03-31T04:19:12.845Z,0.98
2023-03-31T04:21:45.501Z,1.30
2023-03-31T04:24:16.380Z,1.02
2023-03-31T04:26:43.546Z,1.10
2023-03-31T04:29:16.789Z,1.15
2023-03-31T04:31:44.242Z,0.98
2023-03-31T04:34:15.616Z,1.33
2023-03-31T04:36:47.739Z,0.90
2023-03-31T04:39:18.878Z,1.27
2023-03-31T04:41:45.706Z,0.90
2023-03-31T04:44:12.584Z,1.13
2023-03-31T04:46:39.398Z,1.30
2023-03-31T04:49:06.665Z,1.35
2023-03-31T04:51:33.483Z,1.60
2023-03-31T04:54:00.458Z,1.17
2023-03-31T04:56:27.574Z,1.10
2023-03-31T04:58:54.477Z,1.23
2023-03-31T05:01:21.377Z,1.10
2023-03-31T05:03:48.429Z,1.38
2023-03-31T05:06:18.577Z,1.38
2023-03-31T05:08:45.655Z,1.20
2023-03-31T05:11:12.436Z,1.40
2023-03-31T05:13:39.204Z,1.10
2023-03-31T05:16:07.800Z,1.30
2023-03-31T05:18:34.867Z,0.90
2023-03-31T05:21:19.564Z,1.25
2023-03-31T05:23:46.872Z,1.40
2023-03-31T05:26:14.045Z,1.38
2023-03-31T05:28:41.660Z,1.30
2023-03-31T05:31:09.413Z,1.23
2023-03-31T05:33:40.503Z,1.23
2023-03-31T05:36:11.792Z,1.02
2023-03-31T05:38:40.488Z,1.20
2023-03-31T05:41:09.613Z,1.20
2023-03-31T05:43:37.371Z,1.42
2023-03-31T05:46:05.167Z,1.20
2023-03-31T05:48:32.430Z,1.38
2023-03-31T05:51:00.000Z,1.00
2023-03-31T05:53:27.244Z,1.33
2023-03-31T05:56:02.226Z,1.52
2023-03-31T05:58:29.732Z,1.10
2023-03-31T06:01:11.119Z,1.50
2023-03-31T06:03:42.251Z,1.33
2023-03-31T06:06:10.106Z,1.27
2023-03-31T06:08:38.073Z,1.10
2023-03-31T06:11:06.972Z,0.88
2023-03-31T06:13:37.545Z,1.80
2023-03-31T06:16:04.928Z,1.17
2023-03-31T06:18:33.585Z,1.30
2023-03-31T06:21:01.038Z,1.45
2023-03-31T06:23:27.877Z,1.20
2023-03-31T06:25:54.885Z,1.30
2023-03-31T06:28:21.810Z,2.00
2023-03-31T06:30:48.651Z,1.58
2023-03-31T06:33:16.731Z,1.27
2023-03-31T06:35:43.773Z,1.60
2023-03-31T06:38:10.843Z,1.40
2023-03-31T06:40:37.711Z,1.88
2023-03-31T06:43:04.687Z,1.55
2023-03-31T06:45:31.546Z,1.45
2023-03-31T06:47:58.417Z,1.15
2023-03-31T06:50:25.441Z,1.40
2023-03-31T06:52:55.294Z,1.80
2023-03-31T06:55:22.241Z,1.45
2023-03-31T06:57:49.153Z,1.75
2023-03-31T07:00:16.872Z,1.40
2023-03-31T07:02:43.768Z,1.58
2023-03-31T07:05:11.145Z,1.55
2023-03-31T07:07:38.067Z,1.30
2023-03-31T07:10:05.169Z,1.25
2023-03-31T07:12:34.085Z,1.80
2023-03-31T07:15:01.097Z,1.20
2023-03-31T07:17:28.301Z,1.67
2023-03-31T07:19:55.089Z,1.15
2023-03-31T07:22:21.959Z,1.63
2023-03-31T07:24:48.725Z,1.02
2023-03-31T07:27:15.694Z,1.27
2023-03-31T07:29:42.536Z,1.40
2023-03-31T07:32:09.823Z,1.58
2023-03-31T07:34:37.825Z,1.30
2023-03-31T07:37:04.913Z,1.30
2023-03-31T07:39:31.799Z,1.10
2023-03-31T07:41:58.718Z,1.38
2023-03-31T07:44:25.842Z,1.50
2023-03-31T07:46:52.656Z,1.25
2023-03-31T07:49:19.562Z,1.23
2023-03-31T07:51:46.341Z,1.67
2023-03-31T07:54:13.300Z,1.15
2023-03-31T07:56:40.235Z,1.30
2023-03-31T07:59:07.051Z,1.20
2023-03-31T08:01:33.919Z,0.95
2023-03-31T08:04:01.252Z,1.85
2023-03-31T08:06:30.135Z,0.95
2023-03-31T08:08:57.913Z,1.17
2023-03-31T08:11:26.210Z,0.90
2023-03-31T08:13:53.600Z,1.38
2023-03-31T08:16:20.555Z,1.30
2023-03-31T08:18:47.493Z,1.55
2023-03-31T08:21:14.592Z,1.48
2023-03-31T08:23:41.518Z,1.60
2023-03-31T08:26:15.178Z,1.27
2023-03-31T08:28:49.012Z,1.30
2023-03-31T08:31:16.627Z,1.25
2023-03-31T08:33:45.489Z,0.80
2023-03-31T08:36:12.722Z,1.13
2023-03-31T08:38:42.338Z,1.23
2023-03-31T08:41:23.065Z,1.40
2023-03-31T08:43:51.687Z,1.63
2023-03-31T08:46:18.957Z,1.17
2023-03-31T08:48:49.592Z,1.25
2023-03-31T08:51:22.113Z,1.13
2023-03-31T08:53:58.281Z,1.13
2023-03-31T08:56:26.496Z,1.10
2023-03-31T08:58:54.290Z,1.20
2023-03-31T09:01:55.678Z,1.25
2023-03-31T09:04:56.410Z,0.98
2023-03-31T09:07:54.081Z,1.30
2023-03-31T09:10:31.284Z,1.30
2023-03-31T09:13:24.372Z,1.20
2023-03-31T09:15:55.261Z,1.08
2023-03-31T09:18:38.556Z,1.23
2023-03-31T09:21:17.517Z,0.90
2023-03-31T09:23:49.255Z,1.30
2023-03-31T09:26:34.781Z,1.25
2023-03-31T09:29:02.668Z,0.90
2023-03-31T09:31:30.085Z,1.52
2023-03-31T09:34:01.527Z,1.38
2023-03-31T09:36:29.053Z,1.02
2023-03-31T09:38:56.013Z,1.25
2023-03-31T09:41:22.959Z,1.10
2023-03-31T09:43:51.640Z,0.90
2023-03-31T09:46:29.460Z,0.90
2023-03-31T09:49:01.766Z,0.70
2023-03-31T09:51:31.508Z,0.80
2023-03-31T09:54:12.915Z,1.02
2023-03-31T09:56:42.844Z,1.20
2023-03-31T09:59:21.875Z,0.90
2023-03-31T10:01:53.494Z,1.08
2023-03-31T10:04:26.390Z,1.20
2023-03-31T10:06:54.708Z,1.17
2023-03-31T10:09:25.779Z,0.95
2023-03-31T10:12:25.897Z,1.25
2023-03-31T10:14:55.185Z,1.10
2023-03-31T10:17:23.973Z,1.10
2023-03-31T10:20:07.635Z,1.00
2023-03-31T10:22:35.847Z,1.20
2023-03-31T10:25:15.860Z,1.30
2023-03-31T10:27:45.758Z,1.33
2023-03-31T10:30:17.098Z,0.90
2023-03-31T10:32:44.738Z,1.60
2023-03-31T10:35:23.435Z,0.93
2023-03-31T10:37:51.666Z,1.60
2023-03-31T10:40:22.855Z,1.02
2023-03-31T10:42:59.653Z,1.15
2023-03-31T10:45:37.000Z,1.15
2023-03-31T10:48:06.314Z,1.42
2023-03-31T10:50:35.491Z,0.95
2023-03-31T10:53:05.027Z,0.80
2023-03-31T10:55:44.242Z,0.80
2023-03-31T10:58:39.920Z,1.33
2023-03-31T11:01:22.600Z,1.13
2023-03-31T11:04:13.885Z,1.02
2023-03-31T11:06:52.918Z,0.93
2023-03-31T11:09:55.094Z,1.05
2023-03-31T11:12:26.756Z,1.17
2023-03-31T11:15:43.174Z,1.00
2023-03-31T11:18:33.407Z,1.35
2023-03-31T11:21:18.485Z,1.23
2023-03-31T11:24:14.641Z,0.90
2023-03-31T11:27:10.192Z,1.10
2023-03-31T11:29:48.953Z,1.08
2023-03-31T11:32:37.532Z,1.13
2023-03-31T11:35:16.250Z,1.67
2023-03-31T11:37:53.171Z,1.45
2023-03-31T11:40:32.456Z,1.70
2023-03-31T11:43:17.593Z,1.67
2023-03-31T11:46:09.500Z,2.40
2023-03-31T11:48:51.571Z,2.00
2023-03-31T11:51:23.650Z,2.60
2023-03-31T11:53:52.440Z,2.35
2023-03-31T11:56:20.167Z,2.60
2023-03-31T11:58:53.647Z,2.65
2023-03-31T12:01:43.076Z,2.70
2023-03-31T12:04:12.001Z,2.10
2023-03-31T12:06:42.792Z,2.55
2023-03-31T12:09:37.465Z,2.20
2023-03-31T12:12:09.407Z,1.98
2023-03-31T12:14:41.185Z,2.42
2023-03-31T12:17:16.390Z,1.52
2023-03-31T12:19:52.458Z,1.92
2023-03-31T12:22:24.237Z,1.42
2023-03-31T12:24:52.148Z,1.50
2023-03-31T12:27:41.906Z,1.52
2023-03-31T12:30:15.550Z,1.55
2023-03-31T12:32:54.035Z,1.73
2023-03-31T12:35:24.576Z,1.13
2023-03-31T12:38:06.038Z,1.75
2023-03-31T12:41:00.761Z,2.17
2023-03-31T12:43:42.740Z,2.50
2023-03-31T12:46:47.433Z,2.08
2023-03-31T12:49:17.435Z,1.80
2023-03-31T12:52:10.188Z,2.20
2023-03-31T12:54:57.450Z,2.72
2023-03-31T12:57:25.954Z,2.90
2023-03-31T13:00:14.095Z,2.70
2023-03-31T13:02:41.521Z,2.92
2023-03-31T13:05:36.549Z,3.20
2023-03-31T13:08:08.420Z,3.58
2023-03-31T13:11:00.119Z,3.38
2023-03-31T13:13:27.056Z,3.78
2023-03-31T13:15:56.793Z,3.53
2023-03-31T13:18:24.036Z,4.28
2023-03-31T13:21:01.241Z,4.07
2023-03-31T13:23:31.370Z,3.63
2023-03-31T13:25:59.511Z,4.32
2023-03-31T13:28:27.886Z,4.00
2023-03-31T13:31:01.065Z,3.20
2023-03-31T13:33:57.776Z,3.28
2023-03-31T13:36:34.372Z,3.40
2023-03-31T13:39:29.173Z,2.53
2023-03-31T13:42:27.099Z,2.03
2023-03-31T13:45:09.196Z,1.90
2023-03-31T13:47:54.684Z,1.70
2023-03-31T13:50:37.104Z,1.75
2023-03-31T13:53:32.206Z,1.70
2023-03-31T13:56:28.591Z,1.77
2023-03-31T13:59:37.021Z,1.60
2023-03-31T14:02:36.424Z,1.30
2023-03-31T14:05:28.252Z,1.20
2023-03-31T14:07:58.581Z,1.23
2023-03-31T14:10:30.593Z,1.10
2023-03-31T14:13:14.887Z,1.00
2023-03-31T14:15:53.244Z,1.10
2023-03-31T14:18:27.162Z,0.98
2023-03-31T14:21:19.065Z,1.00
2023-03-31T14:24:08.976Z,1.05
2023-03-31T14:26:39.517Z,1.33
2023-03-31T14:29:23.120Z,1.10
2023-03-31T14:32:02.168Z,1.08
2023-03-31T14:34:47.486Z,0.90
2023-03-31T14:37:18.055Z,1.10
2023-03-31T14:39:47.746Z,0.90
2023-03-31T14:42:18.522Z,0.80
2023-03-31T14:44:48.261Z,0.90
2023-03-31T14:47:23.623Z,0.90
2023-03-31T14:50:02.368Z,1.52
2023-03-31T14:52:32.198Z,0.90
2023-03-31T14:55:00.060Z,0.60
2023-03-31T14:57:38.745Z,0.88
2023-03-31T15:00:08.550Z,0.70
2023-03-31T15:02:37.608Z,0.90
2023-03-31T15:05:21.647Z,0.55
2023-03-31T15:07:49.098Z,0.80
2023-03-31T15:10:20.520Z,0.68
2023-03-31T15:12:48.808Z,0.73
2023-03-31T15:15:16.580Z,0.68
2023-03-31T15:17:43.893Z,0.70
2023-03-31T15:20:28.221Z,0.80
2023-03-31T15:22:57.025Z,0.60
2023-03-31T15:25:31.040Z,0.77
2023-03-31T15:28:01.979Z,0.68
2023-03-31T15:30:29.501Z,0.47
2023-03-31T15:33:04.407Z,0.90
2023-03-31T15:35:42.815Z,0.63
2023-03-31T15:38:12.124Z,0.85
2023-03-31T15:40:41.238Z,0.80
2023-03-31T15:43:29.079Z,0.90
2023-03-31T15:45:57.710Z,0.60
2023-03-31T15:48:38.992Z,0.82
2023-03-31T15:51:14.936Z,1.00
2023-03-31T15:53:51.209Z,0.70
2023-03-31T15:56:34.970Z,0.70
2023-03-31T15:59:05.567Z,0.73
2023-03-31T16:01:46.600Z,0.70
2023-03-31T16:04:15.024Z,0.95
2023-03-31T16:06:52.838Z,1.02
2023-03-31T16:09:24.739Z,0.60
2023-03-31T16:11:57.452Z,0.70
2023-03-31T16:14:28.890Z,0.95
2023-03-31T16:17:05.306Z,0.80
2023-03-31T16:19:43.167Z,0.80
2023-03-31T16:22:14.219Z,1.00
2023-03-31T16:24:41.215Z,0.70
2023-03-31T16:27:09.597Z,1.00
2023-03-31T16:29:38.279Z,0.80
2023-03-31T16:32:19.351Z,0.63
2023-03-31T16:35:00.955Z,1.00
2023-03-31T16:37:28.168Z,1.10
2023-03-31T16:39:55.117Z,0.70
2023-03-31T16:42:21.936Z,0.70
2023-03-31T16:44:59.858Z,0.50
2023-03-31T16:47:36.253Z,0.60
2023-03-31T16:50:07.849Z,0.75
2023-03-31T16:52:36.113Z,0.80
2023-03-31T16:55:05.246Z,0.68
2023-03-31T16:57:32.450Z,0.63
2023-03-31T16:59:59.911Z,0.98
2023-03-31T17:02:26.906Z,1.00
2023-03-31T17:04:56.655Z,0.77
2023-03-31T17:07:26.342Z,0.73
2023-03-31T17:09:53.193Z,0.80
2023-03-31T17:12:20.059Z,0.70
2023-03-31T17:14:46.958Z,1.13
2023-03-31T17:17:15.292Z,0.90
2023-03-31T17:19:43.430Z,1.60
2023-03-31T17:22:10.226Z,2.05
2023-03-31T17:24:37.148Z,1.90
2023-03-31T17:27:04.092Z,1.60
2023-03-31T17:29:30.959Z,1.60
2023-03-31T17:31:57.826Z,1.50
2023-03-31T17:34:25.112Z,1.40
2023-03-31T17:36:55.137Z,1.80
2023-03-31T17:39:21.980Z,2.10
2023-03-31T17:41:48.774Z,1.15
2023-03-31T17:44:15.779Z,1.17
2023-03-31T17:46:42.634Z,1.02
2023-03-31T17:49:09.485Z,1.33
2023-03-31T17:51:37.128Z,1.88
2023-03-31T17:54:04.228Z,1.50
2023-03-31T17:56:31.337Z,1.60
2023-03-31T17:58:58.192Z,1.60
2023-03-31T18:01:25.182Z,2.28
2023-03-31T18:03:52.041Z,2.60
2023-03-31T18:06:19.434Z,2.85
2023-03-31T18:08:46.533Z,2.83
2023-03-31T18:11:13.858Z,2.42
2023-03-31T18:13:40.971Z,2.92
2023-03-31T18:16:13.289Z,3.35
2023-03-31T18:18:40.674Z,2.50
2023-03-31T18:21:09.350Z,2.70
2023-03-31T18:23:37.338Z,2.75
2023-03-31T18:26:08.336Z,2.20
2023-03-31T18:28:35.372Z,2.28
2023-03-31T18:31:06.751Z,2.47
2023-03-31T18:33:34.150Z,2.60
2023-03-31T18:36:01.356Z,2.92
2023-03-31T18:38:28.481Z,2.83
2023-03-31T18:40:55.601Z,3.53
2023-03-31T18:43:22.761Z,3.80
2023-03-31T18:45:49.828Z,3.47
2023-03-31T18:48:18.716Z,4.15
2023-03-31T18:50:46.336Z,5.70
2023-03-31T18:53:15.398Z,5.22
2023-03-31T18:55:42.724Z,6.93
2023-03-31T18:58:09.999Z,6.90
2023-03-31T19:00:37.377Z,6.72
2023-03-31T19:03:04.459Z,6.65
2023-03-31T19:05:31.435Z,6.38
2023-03-31T19:07:58.240Z,6.70
2023-03-31T19:10:25.015Z,6.68
2023-03-31T19:12:52.409Z,6.90
2023-03-31T19:15:19.595Z,7.00
2023-03-31T19:17:46.835Z,6.65
2023-03-31T19:20:16.890Z,6.95
2023-03-31T19:22:49.592Z,6.10
2023-03-31T19:25:18.023Z,6.38
2023-03-31T19:27:46.304Z,5.90
2023-03-31T19:30:20.215Z,6.05
2023-03-31T19:32:49.087Z,5.70
2023-03-31T19:35:17.352Z,5.13
2023-03-31T19:37:44.901Z,6.03
2023-03-31T19:40:12.136Z,5.53
2023-03-31T19:42:39.012Z,6.63
2023-03-31T19:45:06.586Z,6.13
2023-03-31T19:47:33.517Z,6.15
2023-03-31T19:50:00.806Z,5.43
2023-03-31T19:52:29.129Z,5.93
2023-03-31T19:54:56.264Z,5.60
2023-03-31T19:57:24.435Z,7.40
2023-03-31T19:59:51.544Z,6.85
2023-03-31T20:02:18.790Z,7.75
2023-03-31T20:04:46.071Z,8.00
2023-03-31T20:07:13.881Z,8.02
2023-03-31T20:09:41.053Z,7.65
2023-03-31T20:12:08.280Z,7.53
2023-03-31T20:14:35.509Z,7.75
2023-03-31T20:17:03.524Z,7.80
2023-03-31T20:19:30.435Z,8.15
2023-03-31T20:21:58.162Z,8.25
2023-03-31T20:24:25.145Z,7.38
2023-03-31T20:26:53.751Z,7.93
2023-03-31T20:29:21.269Z,7.90
2023-03-31T20:31:50.509Z,8.57
2023-03-31T20:34:18.657Z,8.88
2023-03-31T20:36:49.287Z,8.82
2023-03-31T20:39:16.691Z,8.85
2023-03-31T20:41:43.831Z,8.65
2023-03-31T20:44:15.245Z,8.32
2023-03-31T20:46:43.643Z,8.25
2023-03-31T20:49:10.659Z,8.20
2023-03-31T20:51:39.007Z,7.57
2023-03-31T20:54:08.117Z,6.88
2023-03-31T20:56:38.061Z,5.72
2023-03-31T20:59:06.328Z,5.60
2023-03-31T21:01:35.242Z,4.60
2023-03-31T21:04:04.198Z,3.97
2023-03-31T21:06:36.707Z,3.72
2023-03-31T21:09:03.700Z,3.42
2023-03-31T21:11:30.538Z,2.40
2023-03-31T21:13:57.361Z,2.67
2023-03-31T21:16:24.272Z,1.90
2023-03-31T21:18:51.977Z,2.10
2023-03-31T21:21:19.709Z,1.90
2023-03-31T21:23:47.239Z,1.73
2023-03-31T21:26:15.895Z,1.73
2023-03-31T21:28:43.640Z,1.67
2023-03-31T21:31:11.447Z,1.52
2023-03-31T21:33:40.046Z,2.03
2023-03-31T21:36:09.840Z,2.22
2023-03-31T21:38:37.348Z,2.22
2023-03-31T21:41:08.972Z,2.00
2023-03-31T21:43:36.161Z,1.70
2023-03-31T21:46:03.389Z,1.60
2023-03-31T21:48:30.277Z,1.70
2023-03-31T21:51:00.801Z,1.25
2023-03-31T21:53:29.306Z,1.70
2023-03-31T21:55:56.714Z,1.45
2023-03-31T21:58:25.585Z,1.80
2023-03-31T22:00:52.810Z,1.50
2023-03-31T22:03:27.132Z,1.23
2023-03-31T22:05:58.628Z,1.33
2023-03-31T22:08:27.293Z,1.50
2023-03-31T22:10:55.106Z,1.25
2023-03-31T22:13:22.521Z,1.40
2023-03-31T22:15:49.345Z,1.50
2023-03-31T22:18:17.259Z,1.70
2023-03-31T22:20:44.593Z,1.58
2023-03-31T22:23:11.773Z,1.52
2023-03-31T22:25:38.567Z,1.60
2023-03-31T22:28:07.117Z,1.42
2023-03-31T22:30:34.214Z,1.58
2023-03-31T22:33:01.483Z,1.40
2023-03-31T22:35:28.818Z,1.30
2023-03-31T22:37:55.891Z,1.35
2023-03-31T22:40:24.055Z,1.48
2023-03-31T22:42:50.994Z,1.58
2023-03-31T22:45:17.868Z,1.50
2023-03-31T22:47:44.782Z,1.60
2023-03-31T22:50:11.656Z,1.40
2023-03-31T22:52:38.541Z,1.70
2023-03-31T22:55:06.481Z,1.70
2023-03-31T22:57:33.700Z,1.45
2023-03-31T23:00:00.972Z,1.88
2023-03-31T23:02:27.840Z,1.73
2023-03-31T23:04:54.712Z,2.13
2023-03-31T23:07:22.184Z,1.92
2023-03-31T23:09:49.110Z,1.73
2023-03-31T23:12:16.201Z,1.90
2023-03-31T23:14:43.121Z,1.40
2023-03-31T23:17:09.978Z,1.60
2023-03-31T23:19:38.017Z,1.80
2023-03-31T23:22:06.003Z,1.77
2023-03-31T23:24:33.042Z,1.60
2023-03-31T23:26:59.899Z,1.80
2023-03-31T23:29:27.578Z,1.63
2023-03-31T23:31:54.570Z,1.70
2023-03-31T23:34:21.516Z,1.60
2023-03-31T23:36:48.407Z,1.98
2023-03-31T23:39:15.200Z,1.60
2023-03-31T23:41:41.951Z,1.90
2023-03-31T23:44:08.761Z,1.60
2023-03-31T23:46:37.977Z,1.70
2023-03-31T23:49:05.250Z,1.60
2023-03-31T23:51:32.014Z,1.48
2023-03-31T23:53:58.958Z,2.08
2023-03-31T23:56:27.317Z,1.67
2023-03-31T23:58:54.292Z,1.48
